createdAt,value
2022-11-17T00:00:25.599Z,9.73
2022-11-17T00:02:53.613Z,9.03
2022-11-17T00:05:21.729Z,10.23
2022-11-17T00:07:49.987Z,10.53
2022-11-17T00:10:18.836Z,9.03
2022-11-17T00:13:05.525Z,10.20
2022-11-17T00:15:33.587Z,9.90
2022-11-17T00:18:19.256Z,9.43
2022-11-17T00:21:01.244Z,10.00
2022-11-17T00:23:47.051Z,10.30
2022-11-17T00:26:16.788Z,9.07
2022-11-17T00:28:46.127Z,10.37
2022-11-17T00:31:31.922Z,9.60
2022-11-17T00:34:06.485Z,9.57
2022-11-17T00:36:37.408Z,9.50
2022-11-17T00:39:06.224Z,9.03
2022-11-17T00:41:34.396Z,10.40
2022-11-17T00:44:03.767Z,7.60
2022-11-17T00:46:32.077Z,9.80
2022-11-17T00:49:00.309Z,9.03
2022-11-17T00:51:28.679Z,11.43
2022-11-17T00:53:57.009Z,9.40
2022-11-17T00:56:26.574Z,8.83
2022-11-17T00:58:54.654Z,9.60
2022-11-17T01:01:24.741Z,9.50
2022-11-17T01:04:02.843Z,11.03
2022-11-17T01:06:33.936Z,9.10
2022-11-17T01:09:02.519Z,12.63
2022-11-17T01:11:31.040Z,8.97
2022-11-17T01:14:01.226Z,11.37
2022-11-17T01:16:32.014Z,12.73
2022-11-17T01:19:01.785Z,10.70
2022-11-17T01:21:31.606Z,12.13
2022-11-17T01:24:01.641Z,10.03
2022-11-17T01:26:31.410Z,9.60
2022-11-17T01:29:00.440Z,12.73
2022-11-17T01:31:31.553Z,13.43
2022-11-17T01:34:00.056Z,11.60
2022-11-17T01:36:30.978Z,10.77
2022-11-17T01:38:58.984Z,12.73
2022-11-17T01:41:28.987Z,13.37
2022-11-17T01:43:58.644Z,11.13
2022-11-17T01:46:32.828Z,10.83
2022-11-17T01:49:05.877Z,11.60
2022-11-17T01:51:36.476Z,11.37
2022-11-17T01:54:04.715Z,10.50
2022-11-17T01:56:38.853Z,11.77
2022-11-17T01:59:11.010Z,11.37
2022-11-17T02:01:55.751Z,10.83
2022-11-17T02:04:27.103Z,12.77
2022-11-17T02:07:00.853Z,12.13
2022-11-17T02:09:29.271Z,11.50
2022-11-17T02:11:59.544Z,11.77
2022-11-17T02:14:27.616Z,8.83
2022-11-17T02:17:01.044Z,14.40
2022-11-17T02:19:38.143Z,13.13
2022-11-17T02:22:29.581Z,10.93
2022-11-17T02:25:25.839Z,12.60
2022-11-17T02:28:08.808Z,12.17
2022-11-17T02:30:42.641Z,11.27
2022-11-17T02:33:16.916Z,12.93
2022-11-17T02:35:51.039Z,8.73
2022-11-17T02:38:28.509Z,11.17
2022-11-17T02:41:03.557Z,12.63
2022-11-17T02:43:55.075Z,11.77
2022-11-17T02:46:24.633Z,12.00
2022-11-17T02:48:57.563Z,12.23
2022-11-17T02:51:26.522Z,12.30
2022-11-17T02:53:57.451Z,11.40
2022-11-17T02:56:25.504Z,11.47
2022-11-17T02:58:59.297Z,10.67
2022-11-17T03:01:47.192Z,6.67
2022-11-17T03:04:31.516Z,11.60
2022-11-17T03:07:11.893Z,10.60
2022-11-17T03:09:50.345Z,10.53
2022-11-17T03:12:24.379Z,12.67
2022-11-17T03:15:03.408Z,11.60
2022-11-17T03:17:38.225Z,11.30
2022-11-17T03:20:13.592Z,9.07
2022-11-17T03:22:49.690Z,10.93
2022-11-17T03:25:23.127Z,12.37
2022-11-17T03:27:55.941Z,11.27
2022-11-17T03:30:26.730Z,11.73
2022-11-17T03:33:02.183Z,10.13
2022-11-17T03:35:32.332Z,9.80
2022-11-17T03:38:05.178Z,10.00
2022-11-17T03:40:36.668Z,10.60
2022-11-17T03:43:08.413Z,11.40
2022-11-17T03:45:41.779Z,10.80
2022-11-17T03:48:15.192Z,10.30
2022-11-17T03:50:48.807Z,10.90
2022-11-17T03:53:17.103Z,11.80
2022-11-17T03:55:55.112Z,8.77
2022-11-17T03:58:25.425Z,10.87
2022-11-17T04:00:56.139Z,9.80
2022-11-17T04:03:24.463Z,8.63
2022-11-17T04:05:52.462Z,10.53
2022-11-17T04:08:23.948Z,9.77
2022-11-17T04:11:09.326Z,10.47
2022-11-17T04:13:54.658Z,8.57
2022-11-17T04:16:24.045Z,10.27
2022-11-17T04:18:55.925Z,10.00
2022-11-17T04:21:26.817Z,10.20
2022-11-17T04:23:54.828Z,10.00
2022-11-17T04:26:40.348Z,9.27
2022-11-17T04:29:08.304Z,10.57
2022-11-17T04:31:37.773Z,11.67
2022-11-17T04:34:07.853Z,11.10
2022-11-17T04:36:40.582Z,9.03
2022-11-17T04:39:08.613Z,11.93
2022-11-17T04:41:54.651Z,10.00
2022-11-17T04:44:24.533Z,9.77
2022-11-17T04:46:54.547Z,10.30
2022-11-17T04:49:23.927Z,11.93
2022-11-17T04:51:52.901Z,9.80
2022-11-17T04:54:24.514Z,8.90
2022-11-17T04:56:53.805Z,8.73
2022-11-17T04:59:22.120Z,9.77
2022-11-17T05:01:50.552Z,9.30
2022-11-17T05:04:35.828Z,9.57
2022-11-17T05:07:03.850Z,8.60
2022-11-17T05:09:32.162Z,9.47
2022-11-17T05:12:17.746Z,9.43
2022-11-17T05:14:47.260Z,9.60
2022-11-17T05:17:14.259Z,10.07
2022-11-17T05:19:45.456Z,9.90
2022-11-17T05:22:32.662Z,10.17
2022-11-17T05:25:01.285Z,10.83
2022-11-17T05:27:29.848Z,11.20
2022-11-17T05:29:58.129Z,10.07
2022-11-17T05:32:26.217Z,10.83
2022-11-17T05:34:55.560Z,9.87
2022-11-17T05:37:23.603Z,9.23
2022-11-17T05:39:51.776Z,9.13
2022-11-17T05:42:19.891Z,10.67
2022-11-17T05:44:48.964Z,10.60
2022-11-17T05:47:17.186Z,10.77
2022-11-17T05:49:45.253Z,8.90
2022-11-17T05:52:14.670Z,9.73
2022-11-17T05:54:42.740Z,9.53
2022-11-17T05:57:14.905Z,9.87
2022-11-17T05:59:46.662Z,10.40
2022-11-17T06:02:18.997Z,8.10
2022-11-17T06:04:49.668Z,11.70
2022-11-17T06:07:20.470Z,11.47
2022-11-17T06:09:49.074Z,10.07
2022-11-17T06:12:17.060Z,11.53
2022-11-17T06:14:45.068Z,11.63
2022-11-17T06:17:22.054Z,10.13
2022-11-17T06:19:55.847Z,10.73
2022-11-17T06:22:26.167Z,13.20
2022-11-17T06:24:55.428Z,11.53
2022-11-17T06:27:25.464Z,11.53
2022-11-17T06:29:54.836Z,12.50
2022-11-17T06:32:23.362Z,12.63
2022-11-17T06:34:56.199Z,12.27
2022-11-17T06:37:26.308Z,12.57
2022-11-17T06:39:54.373Z,12.03
2022-11-17T06:42:42.838Z,12.63
2022-11-17T06:45:12.603Z,11.80
2022-11-17T06:47:40.880Z,15.33
2022-11-17T06:50:09.849Z,12.60
2022-11-17T06:52:39.626Z,12.70
2022-11-17T06:55:08.952Z,12.03
2022-11-17T06:57:37.025Z,12.97
2022-11-17T07:00:07.028Z,13.30
2022-11-17T07:02:36.664Z,11.73
2022-11-17T07:05:04.974Z,11.63
2022-11-17T07:07:33.065Z,12.87
2022-11-17T07:10:02.563Z,13.10
2022-11-17T07:12:30.659Z,13.20
2022-11-17T07:14:58.699Z,13.43
2022-11-17T07:17:27.120Z,13.80
2022-11-17T07:19:55.559Z,10.10
2022-11-17T07:22:23.684Z,11.20
2022-11-17T07:24:51.736Z,14.30
2022-11-17T07:27:21.122Z,13.23
2022-11-17T07:29:49.201Z,13.40
2022-11-17T07:32:17.239Z,15.33
2022-11-17T07:34:45.306Z,14.70
2022-11-17T07:37:13.322Z,13.30
2022-11-17T07:39:41.387Z,12.23
2022-11-17T07:42:09.741Z,13.37
2022-11-17T07:44:39.187Z,15.57
2022-11-17T07:47:07.236Z,13.10
2022-11-17T07:49:35.274Z,12.40
2022-11-17T07:52:03.326Z,13.40
2022-11-17T07:54:31.344Z,14.13
2022-11-17T07:56:59.387Z,17.03
2022-11-17T07:59:27.435Z,13.93
2022-11-17T08:01:56.847Z,13.23
2022-11-17T08:04:24.947Z,13.63
2022-11-17T08:06:53.075Z,13.37
2022-11-17T08:09:21.186Z,13.80
2022-11-17T08:11:49.517Z,12.70
2022-11-17T08:14:17.590Z,11.17
2022-11-17T08:16:45.639Z,12.90
2022-11-17T08:19:15.282Z,10.37
2022-11-17T08:21:43.332Z,12.40
2022-11-17T08:24:13.382Z,15.23
2022-11-17T08:26:41.452Z,12.80
2022-11-17T08:29:09.721Z,13.23
2022-11-17T08:31:37.841Z,10.57
2022-11-17T08:34:06.385Z,11.30
2022-11-17T08:36:35.975Z,14.00
2022-11-17T08:39:04.567Z,11.47
2022-11-17T08:41:32.845Z,12.63
2022-11-17T08:44:01.304Z,14.43
2022-11-17T08:46:29.401Z,14.37
2022-11-17T08:48:57.529Z,14.20
2022-11-17T08:51:27.173Z,14.30
2022-11-17T08:53:57.711Z,15.03
2022-11-17T08:56:26.266Z,15.17
2022-11-17T08:58:54.335Z,11.90
2022-11-17T09:01:22.549Z,10.33
2022-11-17T09:03:50.732Z,12.10
2022-11-17T09:06:20.015Z,12.50
2022-11-17T09:08:48.790Z,15.57
2022-11-17T09:11:18.258Z,13.50
2022-11-17T09:13:47.060Z,10.43
2022-11-17T09:16:16.151Z,14.30
2022-11-17T09:18:47.039Z,14.27
2022-11-17T09:21:17.126Z,10.50
2022-11-17T09:23:45.198Z,14.73
2022-11-17T09:26:14.596Z,14.10
2022-11-17T09:28:44.794Z,15.30
2022-11-17T09:31:14.683Z,14.57
2022-11-17T09:33:44.473Z,14.67
2022-11-17T09:36:13.948Z,16.03
2022-11-17T09:38:42.318Z,15.17
2022-11-17T09:41:23.102Z,16.20
2022-11-17T09:44:03.575Z,12.03
2022-11-17T09:46:47.315Z,12.07
2022-11-17T09:49:24.195Z,14.83
2022-11-17T09:51:52.975Z,17.50
2022-11-17T09:54:27.950Z,16.50
2022-11-17T09:56:59.004Z,16.70
2022-11-17T09:59:31.021Z,15.23
2022-11-17T10:01:59.703Z,14.20
2022-11-17T10:04:30.522Z,17.67
2022-11-17T10:06:59.540Z,11.73
2022-11-17T10:09:37.767Z,14.33
2022-11-17T10:12:17.768Z,15.77
2022-11-17T10:14:49.162Z,16.27
2022-11-17T10:17:17.617Z,13.70
2022-11-17T10:19:46.429Z,15.73
2022-11-17T10:22:28.215Z,13.23
2022-11-17T10:24:58.575Z,16.10
2022-11-17T10:27:28.365Z,13.70
2022-11-17T10:30:02.453Z,17.87
2022-11-17T10:32:32.982Z,17.50
2022-11-17T10:35:15.128Z,16.23
2022-11-17T10:37:52.585Z,18.17
2022-11-17T10:40:25.436Z,17.87
2022-11-17T10:43:04.025Z,18.10
2022-11-17T10:45:34.438Z,17.10
2022-11-17T10:48:24.036Z,16.73
2022-11-17T10:50:53.904Z,18.03
2022-11-17T10:53:32.554Z,15.00
2022-11-17T10:56:13.653Z,16.70
2022-11-17T10:59:02.133Z,16.23
2022-11-17T11:01:35.051Z,16.83
2022-11-17T11:04:04.263Z,17.43
2022-11-17T11:06:33.993Z,15.40
2022-11-17T11:09:05.693Z,19.13
2022-11-17T11:11:44.999Z,18.03
2022-11-17T11:14:32.462Z,18.40
2022-11-17T11:17:07.354Z,16.17
2022-11-17T11:19:35.726Z,15.87
2022-11-17T11:22:21.514Z,17.00
2022-11-17T11:24:56.586Z,17.27
2022-11-17T11:27:49.383Z,15.23
2022-11-17T11:30:19.663Z,16.13
2022-11-17T11:33:01.959Z,17.70
2022-11-17T11:35:45.982Z,17.30
2022-11-17T11:38:28.728Z,16.77
2022-11-17T11:41:20.196Z,15.93
2022-11-17T11:44:00.221Z,15.57
2022-11-17T11:46:39.095Z,15.87
2022-11-17T11:49:16.737Z,18.70
2022-11-17T11:51:47.546Z,14.63
2022-11-17T11:54:20.562Z,16.50
2022-11-17T11:56:49.598Z,15.00
2022-11-17T11:59:22.558Z,16.87
2022-11-17T12:02:03.009Z,15.33
2022-11-17T12:04:41.311Z,16.57
2022-11-17T12:07:18.544Z,14.00
2022-11-17T12:09:52.925Z,14.77
2022-11-17T12:12:28.278Z,16.90
2022-11-17T12:15:13.633Z,14.83
2022-11-17T12:18:00.088Z,15.63
2022-11-17T12:20:55.198Z,15.97
2022-11-17T12:23:39.141Z,14.50
2022-11-17T12:26:07.846Z,16.50
2022-11-17T12:28:38.128Z,17.43
2022-11-17T12:31:10.425Z,11.57
2022-11-17T12:34:11.446Z,15.60
2022-11-17T12:36:41.148Z,15.23
2022-11-17T12:39:47.563Z,13.87
2022-11-17T12:42:15.674Z,16.63
2022-11-17T12:44:51.541Z,16.00
2022-11-17T12:47:21.468Z,16.07
2022-11-17T12:50:09.328Z,13.00
2022-11-17T12:52:47.499Z,17.20
2022-11-17T12:55:22.662Z,14.43
2022-11-17T12:57:58.086Z,15.33
2022-11-17T13:00:27.087Z,14.90
2022-11-17T13:03:02.792Z,14.87
2022-11-17T13:05:31.470Z,15.80
2022-11-17T13:08:22.343Z,16.80
2022-11-17T13:10:50.924Z,16.20
2022-11-17T13:13:20.649Z,15.13
2022-11-17T13:15:52.171Z,15.20
2022-11-17T13:18:30.919Z,15.03
2022-11-17T13:20:59.392Z,15.30
2022-11-17T13:23:29.948Z,14.93
2022-11-17T13:26:21.513Z,14.60
2022-11-17T13:28:50.375Z,15.90
2022-11-17T13:31:20.475Z,15.27
2022-11-17T13:33:57.714Z,14.87
2022-11-17T13:36:27.302Z,10.83
2022-11-17T13:39:00.391Z,15.60
2022-11-17T13:41:30.362Z,13.37
2022-11-17T13:43:58.791Z,14.07
2022-11-17T13:46:26.983Z,14.63
2022-11-17T13:48:55.230Z,15.17
2022-11-17T13:51:28.822Z,16.07
2022-11-17T13:54:01.542Z,15.50
2022-11-17T13:56:35.292Z,13.00
2022-11-17T13:59:07.564Z,16.10
2022-11-17T14:01:35.945Z,15.67
2022-11-17T14:04:19.805Z,13.90
2022-11-17T14:06:57.190Z,15.47
2022-11-17T14:09:28.593Z,11.57
2022-11-17T14:11:57.526Z,15.23
2022-11-17T14:14:33.523Z,13.97
2022-11-17T14:17:13.029Z,14.70
2022-11-17T14:19:41.132Z,14.17
2022-11-17T14:22:30.908Z,18.10
2022-11-17T14:25:01.311Z,13.87
2022-11-17T14:27:41.652Z,15.63
2022-11-17T14:30:14.517Z,15.50
2022-11-17T14:32:42.576Z,14.77
2022-11-17T14:35:14.791Z,15.23
2022-11-17T14:37:43.185Z,14.40
2022-11-17T14:40:17.553Z,15.67
2022-11-17T14:42:45.782Z,12.43
2022-11-17T14:45:16.522Z,12.00
2022-11-17T14:47:44.919Z,12.20
2022-11-17T14:50:14.798Z,13.37
2022-11-17T14:52:43.746Z,13.97
2022-11-17T14:55:12.360Z,13.70
2022-11-17T14:57:42.058Z,13.53
2022-11-17T15:00:17.287Z,12.33
2022-11-17T15:02:48.140Z,16.60
2022-11-17T15:05:16.704Z,12.60
2022-11-17T15:07:44.967Z,13.57
2022-11-17T15:10:13.112Z,12.50
2022-11-17T15:12:42.555Z,13.07
2022-11-17T15:15:11.267Z,12.33
2022-11-17T15:17:39.677Z,12.67
2022-11-17T15:20:09.681Z,12.73
2022-11-17T15:22:37.799Z,13.17
2022-11-17T15:25:06.623Z,13.97
2022-11-17T15:27:34.690Z,15.83
2022-11-17T15:30:04.805Z,14.97
2022-11-17T15:32:32.895Z,14.27
2022-11-17T15:35:00.944Z,16.17
2022-11-17T15:37:29.016Z,14.13
2022-11-17T15:39:56.995Z,13.50
2022-11-17T15:42:25.065Z,15.60
2022-11-17T15:44:53.142Z,15.83
2022-11-17T15:47:22.625Z,16.70
2022-11-17T15:49:50.629Z,15.10
2022-11-17T15:52:30.066Z,15.70
2022-11-17T15:55:07.329Z,15.97
2022-11-17T15:57:35.346Z,15.70
2022-11-17T16:00:04.369Z,15.50
2022-11-17T16:02:33.703Z,13.43
2022-11-17T16:05:02.137Z,14.93
2022-11-17T16:07:30.382Z,15.77
2022-11-17T16:09:58.417Z,15.93
2022-11-17T16:12:26.495Z,17.53
2022-11-17T16:14:54.525Z,17.73
2022-11-17T16:17:22.574Z,15.50
2022-11-17T16:19:51.959Z,14.30
2022-11-17T16:22:20.014Z,18.37
2022-11-17T16:24:48.062Z,14.97
2022-11-17T16:27:16.117Z,13.90
2022-11-17T16:29:44.150Z,13.63
2022-11-17T16:32:12.146Z,14.70
2022-11-17T16:34:41.527Z,16.83
2022-11-17T16:37:11.000Z,15.37
2022-11-17T16:39:39.598Z,14.30
2022-11-17T16:42:07.778Z,13.37
2022-11-17T16:44:35.970Z,15.03
2022-11-17T16:47:04.071Z,13.37
2022-11-17T16:49:34.943Z,15.47
2022-11-17T16:52:03.000Z,14.03
2022-11-17T16:54:32.425Z,14.07
2022-11-17T16:57:00.416Z,14.00
2022-11-17T16:59:28.422Z,13.30
2022-11-17T17:01:56.434Z,14.17
2022-11-17T17:04:24.514Z,14.67
2022-11-17T17:06:52.671Z,15.07
2022-11-17T17:09:27.490Z,14.60
2022-11-17T17:11:58.235Z,14.80
2022-11-17T17:14:26.427Z,15.60
2022-11-17T17:16:54.557Z,15.43
2022-11-17T17:19:22.705Z,14.00
2022-11-17T17:21:50.802Z,13.27
2022-11-17T17:24:19.341Z,12.70
2022-11-17T17:26:47.702Z,11.33
2022-11-17T17:29:17.351Z,14.43
2022-11-17T17:31:45.682Z,13.73
2022-11-17T17:34:15.457Z,14.47
2022-11-17T17:36:43.871Z,14.87
2022-11-17T17:39:15.572Z,14.80
2022-11-17T17:41:44.455Z,15.37
2022-11-17T17:44:17.403Z,12.77
2022-11-17T17:46:46.311Z,14.43
2022-11-17T17:49:14.792Z,15.07
2022-11-17T17:51:44.788Z,11.73
2022-11-17T17:54:16.773Z,12.60
2022-11-17T17:56:45.057Z,15.23
2022-11-17T17:59:14.574Z,13.17
2022-11-17T18:01:46.082Z,13.00
2022-11-17T18:04:16.281Z,11.33
2022-11-17T18:06:47.363Z,13.57
2022-11-17T18:09:18.746Z,13.40
2022-11-17T18:11:49.445Z,12.80
2022-11-17T18:14:20.392Z,11.83
2022-11-17T18:16:49.782Z,13.60
2022-11-17T18:19:19.009Z,12.67
2022-11-17T18:21:47.270Z,17.50
2022-11-17T18:24:15.390Z,11.73
2022-11-17T18:26:43.797Z,11.70
2022-11-17T18:29:16.035Z,11.73
2022-11-17T18:31:46.549Z,11.70
2022-11-17T18:34:18.787Z,11.80
2022-11-17T18:36:46.990Z,12.30
2022-11-17T18:39:16.207Z,12.43
2022-11-17T18:41:44.900Z,13.17
2022-11-17T18:44:13.952Z,12.57
2022-11-17T18:46:42.349Z,9.23
2022-11-17T18:49:10.597Z,11.17
2022-11-17T18:51:40.583Z,11.23
2022-11-17T18:54:08.889Z,12.77
2022-11-17T18:56:38.517Z,14.70
2022-11-17T18:59:11.611Z,14.77
2022-11-17T19:01:41.078Z,14.10
2022-11-17T19:04:09.251Z,12.83
2022-11-17T19:06:37.262Z,13.10
2022-11-17T19:09:08.142Z,13.63
2022-11-17T19:11:36.237Z,13.27
2022-11-17T19:14:05.299Z,15.03
2022-11-17T19:16:42.633Z,13.57
2022-11-17T19:19:13.122Z,14.17
2022-11-17T19:21:41.904Z,11.40
2022-11-17T19:24:11.573Z,12.67
2022-11-17T19:26:39.929Z,15.43
2022-11-17T19:29:15.980Z,12.30
2022-11-17T19:31:44.705Z,14.87
2022-11-17T19:34:13.177Z,10.97
2022-11-17T19:36:41.191Z,12.47
2022-11-17T19:39:09.264Z,14.93
2022-11-17T19:41:39.706Z,13.30
2022-11-17T19:44:09.326Z,12.13
2022-11-17T19:46:37.681Z,13.17
2022-11-17T19:49:07.484Z,13.73
2022-11-17T19:51:37.502Z,13.63
2022-11-17T19:54:07.456Z,14.87
2022-11-17T19:56:35.761Z,14.87
2022-11-17T19:59:06.203Z,13.73
2022-11-17T20:01:34.783Z,11.37
2022-11-17T20:04:04.425Z,11.50
2022-11-17T20:06:37.953Z,12.90
2022-11-17T20:09:10.024Z,13.77
2022-11-17T20:11:38.509Z,12.57
2022-11-17T20:14:08.510Z,12.53
2022-11-17T20:16:38.303Z,13.10
2022-11-17T20:19:06.471Z,14.60
2022-11-17T20:21:34.809Z,11.97
2022-11-17T20:24:03.257Z,13.00
2022-11-17T20:26:33.182Z,12.33
2022-11-17T20:29:01.925Z,12.73
2022-11-17T20:31:33.426Z,13.03
2022-11-17T20:34:03.259Z,12.83
2022-11-17T20:36:33.138Z,11.33
2022-11-17T20:39:02.651Z,11.60
2022-11-17T20:41:31.257Z,11.50
2022-11-17T20:44:01.810Z,11.37
2022-11-17T20:46:31.403Z,11.40
2022-11-17T20:48:59.431Z,13.73
2022-11-17T20:51:27.819Z,13.07
2022-11-17T20:53:56.205Z,12.20
2022-11-17T20:56:24.223Z,10.77
2022-11-17T20:58:52.293Z,12.50
2022-11-17T21:01:23.037Z,11.10
2022-11-17T21:03:52.539Z,12.03
2022-11-17T21:06:22.866Z,9.67
2022-11-17T21:08:51.190Z,10.70
2022-11-17T21:11:35.022Z,10.10
2022-11-17T21:14:03.683Z,11.70
2022-11-17T21:16:31.721Z,12.23
2022-11-17T21:19:01.242Z,13.67
2022-11-17T21:21:29.469Z,10.30
2022-11-17T21:23:57.507Z,10.10
2022-11-17T21:26:25.588Z,12.10
2022-11-17T21:28:53.867Z,11.27
2022-11-17T21:31:23.788Z,11.07
2022-11-17T21:33:54.840Z,10.30
2022-11-17T21:36:25.628Z,9.97
2022-11-17T21:38:54.405Z,11.57
2022-11-17T21:41:24.686Z,10.20
2022-11-17T21:43:54.649Z,10.27
2022-11-17T21:46:28.448Z,10.93
2022-11-17T21:48:58.239Z,10.40
2022-11-17T21:51:30.032Z,11.50
2022-11-17T21:53:59.832Z,11.13
2022-11-17T21:56:29.522Z,9.90
2022-11-17T21:58:58.146Z,12.27
2022-11-17T22:01:26.915Z,11.07
2022-11-17T22:03:55.110Z,9.60
2022-11-17T22:06:25.592Z,11.03
2022-11-17T22:08:56.037Z,12.03
2022-11-17T22:11:36.868Z,10.13
2022-11-17T22:14:10.136Z,11.43
2022-11-17T22:16:40.022Z,10.70
2022-11-17T22:19:09.275Z,11.60
2022-11-17T22:21:38.532Z,11.60
2022-11-17T22:24:12.755Z,12.87
2022-11-17T22:26:43.474Z,11.57
2022-11-17T22:29:14.134Z,10.30
2022-11-17T22:31:43.226Z,12.80
2022-11-17T22:34:12.030Z,12.03
2022-11-17T22:36:40.799Z,12.17
2022-11-17T22:39:10.674Z,12.20
2022-11-17T22:41:39.503Z,11.47
2022-11-17T22:44:07.887Z,12.70
2022-11-17T22:46:36.467Z,12.83
2022-11-17T22:49:04.828Z,12.57
2022-11-17T22:51:50.662Z,12.90
2022-11-17T22:54:20.499Z,12.70
2022-11-17T22:56:49.053Z,12.23
2022-11-17T22:59:17.741Z,12.30
2022-11-17T23:01:46.373Z,11.47
2022-11-17T23:04:16.520Z,12.27
2022-11-17T23:06:45.304Z,14.63
2022-11-17T23:09:14.449Z,12.93
2022-11-17T23:11:44.619Z,12.40
2022-11-17T23:14:15.130Z,12.80
2022-11-17T23:16:43.833Z,11.87
2022-11-17T23:19:14.337Z,13.07
2022-11-17T23:21:43.145Z,12.80
2022-11-17T23:24:13.105Z,14.10
2022-11-17T23:26:43.449Z,13.73
2022-11-17T23:29:12.053Z,12.73
2022-11-17T23:31:40.463Z,13.60
2022-11-17T23:34:10.948Z,13.87
2022-11-17T23:36:39.443Z,12.30
2022-11-17T23:39:08.001Z,15.47
2022-11-17T23:41:36.725Z,12.80
2022-11-17T23:44:06.951Z,14.27
2022-11-17T23:46:35.477Z,13.90
2022-11-17T23:49:06.036Z,13.37
2022-11-17T23:51:35.058Z,13.03
2022-11-17T23:54:03.990Z,13.37
2022-11-17T23:56:34.574Z,13.43
2022-11-17T23:59:03.261Z,16.23
